Time;durP1;ratioP1;P1;durP2;ratioP2;P2;SDS_P1;SDS_P2;PMS_P1;PMS_P2;Temp;Humidity;BMP_temperature;BMP_pressure;BME280_temperature;BME280_humidity;BME280_pressure;Samples;Min_cycle;Max_cycle;Signal;HPM_P1;HPM_P2
2022/11/23 00:00:04;;;;;;;10.35;1.88;;;22.20;23.40;;;;;;5038693;28;20073;-68
2022/11/23 00:02:31;;;;;;;14.68;1.80;;;22.10;23.80;;;;;;5043877;28;20601;-69
2022/11/23 00:04:57;;;;;;;8.98;1.70;;;22.00;23.90;;;;;;5040345;28;20070;-68
2022/11/23 00:07:23;;;;;;;10.02;1.48;;;22.00;23.60;;;;;;5043461;28;20140;-67
2022/11/23 00:09:50;;;;;;;5.35;1.50;;;22.00;23.60;;;;;;5038160;28;20070;-65
2022/11/23 00:12:16;;;;;;;5.60;1.30;;;21.80;24.30;;;;;;5042916;28;20062;-69
2022/11/23 00:14:43;;;;;;;6.35;1.30;;;21.70;24.20;;;;;;5040198;28;20090;-66
2022/11/23 00:17:09;;;;;;;12.07;2.05;;;21.50;24.60;;;;;;5037732;28;20193;-67
2022/11/23 00:19:35;;;;;;;40.17;14.10;;;21.40;25.20;;;;;;5040734;28;20074;-69
2022/11/23 00:22:02;;;;;;;38.60;6.00;;;21.30;25.10;;;;;;5039837;28;20066;-69
2022/11/23 00:24:28;;;;;;;25.30;4.13;;;21.20;25.30;;;;;;5037574;28;20157;-69
2022/11/23 00:26:54;;;;;;;17.00;3.25;;;21.10;25.60;;;;;;5036671;28;20074;-70
2022/11/23 00:29:21;;;;;;;18.40;3.17;;;20.90;26.00;;;;;;5035876;28;20081;-68
2022/11/23 00:31:47;;;;;;;17.42;2.95;;;20.80;25.80;;;;;;5043149;28;20078;-69
2022/11/23 00:34:15;;;;;;;18.13;2.83;;;20.60;26.30;;;;;;5027627;28;20109;-69
2022/11/23 00:36:41;;;;;;;26.75;3.00;;;20.50;26.80;;;;;;5027934;28;20089;-71
2022/11/23 00:39:08;;;;;;;20.73;2.78;;;20.30;27.40;;;;;;5046431;28;21718;-68
2022/11/23 00:41:34;;;;;;;12.05;3.70;;;20.20;28.10;;;;;;5050537;28;20057;-69
2022/11/23 00:44:00;;;;;;;25.27;4.60;;;20.00;28.50;;;;;;5049326;28;20070;-68
2022/11/23 00:46:27;;;;;;;13.30;2.97;;;19.80;29.10;;;;;;5049416;28;20084;-69
2022/11/23 00:48:56;;;;;;;35.05;3.47;;;19.60;29.50;;;;;;5042572;28;20069;-69
2022/11/23 00:51:25;;;;;;;24.00;3.35;;;19.50;30.00;;;;;;5030267;28;20430;-68
2022/11/23 00:53:52;;;;;;;27.67;3.65;;;19.30;30.50;;;;;;5031992;28;20630;-69
2022/11/23 00:56:20;;;;;;;49.30;5.43;;;19.20;30.40;;;;;;5048155;28;20089;-66
2022/11/23 00:58:53;;;;;;;37.17;5.68;;;19.10;30.60;;;;;;5049223;28;20086;-68
2022/11/23 01:01:22;;;;;;;51.92;7.07;;;18.90;30.30;;;;;;5049291;28;20160;-66
2022/11/23 01:03:51;;;;;;;41.17;6.55;;;18.80;30.60;;;;;;5042293;28;20098;-66
2022/11/23 01:06:20;;;;;;;34.80;6.40;;;18.70;31.10;;;;;;5041668;28;20101;-69
2022/11/23 01:08:52;;;;;;;35.47;6.40;;;18.60;31.80;;;;;;5049304;28;20081;-67
2022/11/23 01:11:19;;;;;;;30.63;5.70;;;18.50;32.70;;;;;;5049903;28;20073;-71
2022/11/23 01:13:46;;;;;;;33.03;6.20;;;18.40;33.40;;;;;;5049368;28;20136;-69
2022/11/23 01:16:16;;;;;;;37.58;5.75;;;18.20;33.50;;;;;;5040091;28;20093;-67
2022/11/23 01:18:42;;;;;;;42.38;5.68;;;18.10;33.80;;;;;;5043763;28;20467;-69
2022/11/23 01:21:09;;;;;;;40.00;5.68;;;18.10;34.00;;;;;;5030893;28;20098;-68
2022/11/23 01:23:35;;;;;;;36.97;6.35;;;17.90;34.20;;;;;;5042423;28;20078;-70
2022/11/23 01:26:09;;;;;;;39.30;6.25;;;17.90;34.30;;;;;;5030041;28;20516;-66
2022/11/23 01:28:37;;;;;;;35.45;6.13;;;17.80;34.30;;;;;;5045104;28;20578;-70
2022/11/23 01:31:09;;;;;;;40.63;6.72;;;17.60;34.20;;;;;;5031485;28;20132;-69
2022/11/23 01:33:36;;;;;;;41.13;6.55;;;17.60;34.60;;;;;;5034769;28;20432;-66
2022/11/23 01:36:10;;;;;;;34.90;6.32;;;17.50;34.80;;;;;;5044909;28;20092;-66
2022/11/23 01:38:36;;;;;;;44.35;7.20;;;17.40;35.70;;;;;;5036550;28;20062;-68
2022/11/23 01:41:05;;;;;;;35.00;6.85;;;17.40;36.30;;;;;;5039879;28;20104;-70
2022/11/23 01:43:31;;;;;;;41.33;6.93;;;17.30;36.70;;;;;;5047455;28;20078;-68
2022/11/23 01:46:00;;;;;;;42.33;7.28;;;17.20;36.80;;;;;;5040784;28;20093;-69
2022/11/23 01:48:41;;;;;;;50.90;8.40;;;17.00;36.50;;;;;;5045055;28;20166;-67
2022/11/23 01:51:30;;;;;;;34.15;8.35;;;16.90;36.70;;;;;;5042904;28;20088;-69
2022/11/23 01:54:13;;;;;;;43.85;8.05;;;16.80;36.80;;;;;;5039469;28;20074;-67
2022/11/23 01:56:47;;;;;;;37.17;8.60;;;16.80;37.40;;;;;;5040803;28;20101;-68
2022/11/23 01:59:16;;;;;;;50.28;9.82;;;16.70;37.70;;;;;;5040392;28;20078;-68
2022/11/23 02:01:43;;;;;;;33.25;9.23;;;16.60;37.60;;;;;;5042616;28;20120;-67
2022/11/23 02:04:16;;;;;;;54.22;10.35;;;16.60;37.80;;;;;;5040447;28;20108;-67
2022/11/23 02:06:45;;;;;;;50.97;9.27;;;16.60;38.80;;;;;;5042896;28;20117;-67
2022/11/23 02:09:13;;;;;;;41.72;9.95;;;16.40;39.00;;;;;;5045741;28;20073;-68
2022/11/23 02:11:39;;;;;;;48.47;11.65;;;16.40;39.00;;;;;;5040761;28;20077;-65
2022/11/23 02:14:05;;;;;;;;;;;16.30;38.90;;;;;;5038173;28;20090;-66
2022/11/23 02:16:32;;;;;;;43.28;11.00;;;16.20;38.70;;;;;;5042276;28;19985;-67
2022/11/23 02:18:59;;;;;;;52.92;12.95;;;16.10;39.60;;;;;;5040688;28;20075;-66
2022/11/23 02:21:25;;;;;;;56.78;13.98;;;16.10;39.90;;;;;;5040073;28;20090;-65
2022/11/23 02:24:01;;;;;;;73.03;19.88;;;16.00;40.20;;;;;;5045241;28;20073;-65
2022/11/23 02:26:31;;;;;;;87.30;18.60;;;16.00;40.20;;;;;;5042162;28;20151;-67
2022/11/23 02:29:16;;;;;;;69.60;16.42;;;15.90;40.10;;;;;;5043317;28;20550;-65
2022/11/23 02:31:42;;;;;;;52.25;15.52;;;15.90;40.10;;;;;;5044198;28;20073;-66
2022/11/23 02:34:08;;;;;;;;;;;15.80;40.60;;;;;;5046073;28;20527;-67
2022/11/23 02:36:41;;;;;;;50.80;12.95;;;15.70;40.60;;;;;;5042307;28;19972;-66
2022/11/23 02:39:15;;;;;;;57.70;12.45;;;15.70;40.70;;;;;;5041560;28;20543;-67
2022/11/23 02:41:49;;;;;;;69.57;15.23;;;15.70;40.80;;;;;;5037578;28;20085;-68
2022/11/23 02:44:52;;;;;;;68.75;14.45;;;15.50;41.40;;;;;;5039559;28;20555;-67
2022/11/23 02:47:19;;;;;;;63.75;13.00;;;15.50;41.40;;;;;;5045130;28;20077;-66
2022/11/23 02:49:49;;;;;;;63.25;13.30;;;15.50;41.50;;;;;;5043552;28;20530;-67
2022/11/23 02:52:17;;;;;;;55.30;13.45;;;15.50;41.40;;;;;;5041182;28;20434;-68
2022/11/23 02:54:43;;;;;;;56.80;13.80;;;15.40;42.10;;;;;;5042395;28;20081;-66
2022/11/23 02:57:09;;;;;;;67.10;14.05;;;15.40;42.40;;;;;;5038395;28;20462;-67
2022/11/23 02:59:36;;;;;;;;;;;15.30;42.80;;;;;;5042038;28;20085;-64
2022/11/23 03:02:04;;;;;;;78.68;14.90;;;15.20;42.80;;;;;;5043876;28;19965;-65
2022/11/23 03:04:31;;;;;;;93.25;15.75;;;15.20;43.70;;;;;;5036678;28;20110;-67
2022/11/23 03:06:58;;;;;;;69.85;14.57;;;15.20;44.10;;;;;;5041209;28;20070;-67
2022/11/23 03:09:25;;;;;;;60.70;14.88;;;15.30;44.50;;;;;;5038660;28;20181;-67
2022/11/23 03:11:52;;;;;;;69.40;13.80;;;15.30;44.00;;;;;;5041795;28;20079;-66
2022/11/23 03:14:18;;;;;;;106.65;16.08;;;15.30;44.50;;;;;;5038241;28;20089;-68
2022/11/23 03:16:44;;;;;;;;;;;15.30;44.90;;;;;;5040291;28;20107;-66
2022/11/23 03:19:11;;;;;;;100.82;21.75;;;15.20;43.10;;;;;;5028497;28;19964;-69
2022/11/23 03:21:37;;;;;;;;;;;15.20;42.70;;;;;;5040918;28;20563;-69
2022/11/23 03:24:04;;;;;;;91.95;21.55;;;15.20;42.30;;;;;;5039816;28;19988;-67
2022/11/23 03:26:30;;;;;;;97.47;20.08;;;15.20;43.20;;;;;;5035367;28;20066;-69
2022/11/23 03:28:56;;;;;;;;;;;15.20;43.20;;;;;;5040768;28;20065;-65
2022/11/23 03:31:23;;;;;;;105.53;21.20;;;15.10;43.50;;;;;;5042259;28;19968;-70
2022/11/23 03:33:49;;;;;;;;;;;15.10;43.60;;;;;;5041878;28;20084;-68
2022/11/23 03:36:15;;;;;;;98.55;24.95;;;15.10;43.90;;;;;;5036142;28;19981;-68
2022/11/23 03:38:41;;;;;;;;;;;15.00;44.40;;;;;;5042547;28;20155;-69
2022/11/23 03:41:08;;;;;;;90.03;27.60;;;15.00;44.60;;;;;;5037854;28;20039;-67
2022/11/23 03:43:34;;;;;;;115.93;29.40;;;15.00;44.80;;;;;;5039402;28;20416;-68
2022/11/23 03:46:00;;;;;;;;;;;15.00;44.30;;;;;;5040716;28;20069;-70
2022/11/23 03:48:27;;;;;;;114.80;30.58;;;14.90;43.70;;;;;;5040787;28;20047;-69
2022/11/23 03:50:53;;;;;;;;;;;14.90;43.80;;;;;;5043365;28;20074;-66
2022/11/23 03:53:19;;;;;;;109.85;24.75;;;14.80;43.30;;;;;;5039685;28;19969;-71
2022/11/23 03:55:46;;;;;;;;;;;14.80;43.00;;;;;;5038628;28;20104;-70
2022/11/23 03:58:12;;;;;;;101.80;24.07;;;14.80;43.20;;;;;;5039736;28;20011;-70
2022/11/23 04:00:38;;;;;;;;;;;14.70;43.40;;;;;;5042819;28;20065;-71
2022/11/23 04:03:04;;;;;;;107.57;27.48;;;14.70;44.00;;;;;;5031777;28;19998;-69
2022/11/23 04:05:30;;;;;;;;;;;14.70;43.90;;;;;;5035562;28;20068;-69
2022/11/23 04:07:57;;;;;;;125.55;31.92;;;14.70;44.40;;;;;;5039958;28;20006;-69
2022/11/23 04:10:23;;;;;;;;;;;14.60;44.40;;;;;;5042098;28;20185;-69
2022/11/23 04:12:51;;;;;;;126.38;34.08;;;14.60;44.30;;;;;;5031209;28;19966;-68
2022/11/23 04:15:19;;;;;;;112.10;30.02;;;14.50;45.00;;;;;;5041704;28;20136;-67
2022/11/23 04:17:45;;;;;;;114.07;29.17;;;14.60;45.50;;;;;;5040038;28;20152;-69
2022/11/23 04:20:11;;;;;;;;;;;14.50;45.50;;;;;;5041617;28;20108;-70
2022/11/23 04:22:38;;;;;;;134.63;30.58;;;14.40;45.20;;;;;;5042073;28;19957;-70
2022/11/23 04:25:04;;;;;;;;;;;14.30;45.20;;;;;;5040507;28;20078;-68
2022/11/23 04:27:30;;;;;;;127.32;30.52;;;;;;;;;;5041288;28;20097;-71
2022/11/23 04:29:57;;;;;;;137.00;30.92;;;13.90;74.50;;;;;;5039255;28;20145;-67
2022/11/23 04:32:23;;;;;;;150.88;33.97;;;14.20;46.30;;;;;;5039242;28;20465;-70
2022/11/23 04:34:49;;;;;;;;;;;14.20;45.90;;;;;;5039269;28;20140;-71
2022/11/23 04:37:16;;;;;;;137.75;28.48;;;14.20;46.10;;;;;;5029058;28;19973;-69
2022/11/23 04:39:42;;;;;;;;;;;14.10;47.00;;;;;;5040391;28;20141;-68
2022/11/23 04:42:12;;;;;;;145.05;30.63;;;14.00;46.70;;;;;;5028020;28;19957;-69
2022/11/23 04:44:38;;;;;;;132.10;27.90;;;14.00;47.00;;;;;;5039358;28;20065;-65
2022/11/23 04:47:04;;;;;;;;;;;14.00;47.40;;;;;;5023940;28;20076;-66
2022/11/23 04:49:31;;;;;;;118.93;26.08;;;13.90;47.60;;;;;;5035788;28;19957;-66
2022/11/23 04:51:57;;;;;;;;;;;13.90;47.90;;;;;;5039177;28;20074;-67
2022/11/23 04:54:26;;;;;;;117.03;27.08;;;13.90;48.10;;;;;;5036437;28;19958;-63
2022/11/23 04:56:53;;;;;;;130.77;28.85;;;13.80;47.70;;;;;;5036629;28;20136;-70
2022/11/23 04:59:19;;;;;;;113.00;26.40;;;13.80;48.40;;;;;;5039429;28;20066;-66
2022/11/23 05:01:46;;;;;;;137.32;28.52;;;13.80;48.80;;;;;;5040842;28;20123;-67
2022/11/23 05:04:12;;;;;;;;;;;13.70;47.80;;;;;;5039869;28;20101;-71
2022/11/23 05:06:38;;;;;;;133.63;29.52;;;13.70;48.30;;;;;;5044790;28;19958;-67
2022/11/23 05:09:04;;;;;;;;;;;13.70;48.90;;;;;;5044358;28;20096;-69
2022/11/23 05:11:30;;;;;;;139.57;30.23;;;13.70;48.50;;;;;;5031246;28;19961;-66
2022/11/23 05:13:56;;;;;;;;;;;13.60;48.30;;;;;;5042395;28;20090;-67
2022/11/23 05:16:23;;;;;;;138.18;31.75;;;13.60;49.30;;;;;;5040955;28;19985;-67
2022/11/23 05:18:49;;;;;;;138.15;31.40;;;13.60;48.80;;;;;;5042383;28;20545;-66
2022/11/23 05:21:15;;;;;;;;;;;13.60;48.80;;;;;;5040999;28;20069;-67
2022/11/23 05:23:42;;;;;;;122.35;31.17;;;13.50;49.00;;;;;;5041285;28;19974;-66
2022/11/23 05:26:09;;;;;;;132.38;31.60;;;13.40;49.20;;;;;;5037504;28;20102;-66
2022/11/23 05:28:36;;;;;;;137.68;30.73;;;13.40;49.70;;;;;;5045111;28;20164;-67
2022/11/23 05:31:04;;;;;;;140.52;33.65;;;13.40;49.70;;;;;;5024686;28;20098;-71
2022/11/23 05:33:30;;;;;;;106.15;31.77;;;13.40;49.80;;;;;;5042529;28;20562;-67
2022/11/23 05:35:56;;;;;;;;;;;13.40;49.60;;;;;;5042120;28;20089;-69
2022/11/23 05:38:23;;;;;;;112.15;33.00;;;13.30;49.70;;;;;;5039608;28;20446;-67
2022/11/23 05:40:49;;;;;;;;;;;13.30;49.90;;;;;;5027189;28;20078;-67
2022/11/23 05:43:15;;;;;;;125.72;31.73;;;13.30;49.80;;;;;;5047665;28;19973;-68
2022/11/23 05:45:41;;;;;;;;;;;13.20;50.20;;;;;;5045277;28;20149;-69
2022/11/23 05:48:09;;;;;;;121.00;32.22;;;13.20;50.60;;;;;;5049536;28;19957;-69
2022/11/23 05:50:35;;;;;;;134.88;31.88;;;13.20;51.10;;;;;;5022723;28;20096;-69
2022/11/23 05:53:02;;;;;;;113.30;27.45;;;13.20;50.70;;;;;;5036673;28;20081;-66
2022/11/23 05:55:28;;;;;;;;;;;13.10;50.10;;;;;;5041323;28;20173;-70
2022/11/23 05:57:54;;;;;;;102.90;28.60;;;13.10;50.70;;;;;;5041841;28;19961;-67
2022/11/23 06:00:20;;;;;;;112.63;28.20;;;13.10;50.60;;;;;;5037396;28;20544;-70
2022/11/23 06:02:46;;;;;;;;;;;13.10;50.30;;;;;;5025082;28;20473;-68
2022/11/23 06:05:13;;;;;;;96.93;27.75;;;13.10;49.80;;;;;;5029650;28;19965;-70
2022/11/23 06:07:39;;;;;;;;;;;13.10;49.80;;;;;;5040381;28;20531;-70
2022/11/23 06:10:06;;;;;;;104.43;27.42;;;13.00;50.10;;;;;;5039391;28;19965;-66
2022/11/23 06:12:33;;;;;;;93.50;27.13;;;12.90;50.50;;;;;;5046551;28;20076;-68
2022/11/23 06:14:59;;;;;;;99.20;27.00;;;12.90;50.60;;;;;;5045710;28;20566;-69
2022/11/23 06:17:25;;;;;;;;;;;12.90;50.30;;;;;;5042818;28;20155;-67
2022/11/23 06:19:51;;;;;;;101.50;26.15;;;12.80;49.70;;;;;;5039319;28;19957;-71
2022/11/23 06:22:17;;;;;;;;;;;12.80;49.80;;;;;;5038723;28;20074;-68
2022/11/23 06:24:44;;;;;;;107.75;25.42;;;12.80;49.80;;;;;;5026295;28;20056;-68
2022/11/23 06:27:10;;;;;;;;;;;12.80;49.50;;;;;;5041224;28;20511;-67
2022/11/23 06:29:36;;;;;;;105.53;36.58;;;12.80;49.60;;;;;;5039181;28;20403;-69
2022/11/23 06:32:02;;;;;;;;;;;12.70;50.80;;;;;;5039002;28;20477;-69
2022/11/23 06:34:28;;;;;;;84.20;24.88;;;12.70;50.50;;;;;;5043618;28;20020;-69
2022/11/23 06:36:54;;;;;;;;;;;12.70;50.40;;;;;;5043816;28;20186;-67
2022/11/23 06:39:21;;;;;;;66.55;20.00;;;12.60;49.80;;;;;;5040833;28;19961;-70
2022/11/23 06:41:47;;;;;;;;;;;12.60;48.40;;;;;;5042812;28;20078;-68
2022/11/23 06:44:13;;;;;;;78.82;17.65;;;12.70;48.30;;;;;;5042215;28;19961;-68
2022/11/23 06:46:39;;;;;;;;;;;12.60;47.60;;;;;;5042202;28;20070;-69
2022/11/23 06:49:06;;;;;;;62.80;13.77;;;12.70;46.00;;;;;;5043650;28;19965;-69
2022/11/23 06:51:32;;;;;;;;;;;12.70;45.70;;;;;;5039823;28;20085;-70
2022/11/23 06:53:58;;;;;;;43.17;11.20;;;12.60;46.00;;;;;;5040081;28;19981;-69
2022/11/23 06:56:24;;;;;;;;;;;12.60;45.80;;;;;;5043019;28;20082;-70
2022/11/23 06:58:50;;;;;;;35.13;8.10;;;12.60;44.00;;;;;;5038219;28;19961;-70
2022/11/23 07:01:16;;;;;;;;;;;12.60;43.20;;;;;;5042370;28;20080;-69
2022/11/23 07:03:43;;;;;;;26.40;6.45;;;12.60;41.80;;;;;;5046060;28;20362;-71
2022/11/23 07:06:09;;;;;;;;;;;12.70;41.30;;;;;;5040333;28;20600;-68
2022/11/23 07:08:42;;;;;;;23.50;5.03;;;12.70;40.70;;;;;;5035794;28;19989;-69
2022/11/23 07:11:10;;;;;;;29.52;6.80;;;12.70;40.60;;;;;;5039007;28;20169;-71
2022/11/23 07:13:37;;;;;;;28.60;6.72;;;12.70;40.80;;;;;;5036554;28;20069;-71
2022/11/23 07:16:04;;;;;;;37.50;11.98;;;12.70;41.40;;;;;;5040639;28;20224;-68
2022/11/23 07:18:30;;;;;;;26.10;5.68;;;12.60;40.80;;;;;;5039481;28;20096;-68
2022/11/23 07:20:57;;;;;;;;;;;12.70;41.00;;;;;;5042472;28;20069;-76
2022/11/23 07:23:23;;;;;;;25.65;5.72;;;12.60;41.60;;;;;;5038425;28;20002;-70
2022/11/23 07:25:49;;;;;;;;;;;12.60;41.80;;;;;;5040896;28;20096;-69
2022/11/23 07:28:16;;;;;;;24.65;5.72;;;12.60;62.30;;;;;;5042039;28;19961;-70
2022/11/23 07:30:43;;;;;;;18.13;4.55;;;12.50;58.90;;;;;;5037019;28;20120;-70
2022/11/23 07:33:11;;;;;;;18.50;5.15;;;12.50;63.70;;;;;;5041734;28;20102;-68
2022/11/23 07:35:39;;;;;;;15.40;5.15;;;12.70;53.80;;;;;;5043834;28;20581;-69
2022/11/23 07:38:09;;;;;;;21.63;5.80;;;12.50;40.90;;;;;;5045041;28;20176;-73
2022/11/23 07:40:38;;;;;;;20.90;6.13;;;12.40;41.00;;;;;;5039052;28;20066;-68
2022/11/23 07:43:06;;;;;;;27.38;6.78;;;12.40;41.70;;;;;;5042341;28;20131;-71
2022/11/23 07:45:35;;;;;;;31.67;6.88;;;11.90;59.00;;;;;;5044646;28;20089;-69
2022/11/23 07:48:07;;;;;;;31.88;8.20;;;12.40;43.40;;;;;;5044087;28;20097;-68
2022/11/23 07:50:35;;;;;;;34.60;9.27;;;12.30;44.40;;;;;;5042371;28;20073;-72
2022/11/23 07:53:03;;;;;;;37.63;9.75;;;12.30;64.30;;;;;;5039006;28;20757;-68
2022/11/23 07:55:30;;;;;;;43.05;9.52;;;12.00;59.20;;;;;;5039185;28;20100;-69
2022/11/23 07:57:59;;;;;;;39.10;9.32;;;11.70;45.10;;;;;;5039189;28;20466;-66
2022/11/23 08:00:27;;;;;;;41.47;9.48;;;12.10;44.10;;;;;;5042246;28;20073;-77
2022/11/23 08:02:54;;;;;;;39.53;9.45;;;12.10;43.90;;;;;;5038868;28;20094;-70
2022/11/23 08:05:20;;;;;;;38.92;9.48;;;12.10;44.10;;;;;;5044179;28;20143;-73
2022/11/23 08:07:47;;;;;;;37.90;9.65;;;12.00;44.80;;;;;;5036971;28;20090;-71
2022/11/23 08:10:13;;;;;;;37.13;10.32;;;12.00;45.40;;;;;;5044379;28;20099;-69
2022/11/23 08:12:41;;;;;;;42.28;10.80;;;11.90;45.30;;;;;;5039973;28;20089;-73
2022/11/23 08:15:08;;;;;;;45.78;10.85;;;11.80;45.20;;;;;;5038580;28;20168;-69
2022/11/23 08:17:34;;;;;;;45.88;10.93;;;11.70;45.70;;;;;;5040782;28;20066;-71
2022/11/23 08:20:00;;;;;;;;;;;11.70;46.30;;;;;;5036241;28;20073;-69
2022/11/23 08:22:27;;;;;;;40.03;9.15;;;11.70;46.90;;;;;;5037922;28;20403;-67
2022/11/23 08:24:53;;;;;;;;;;;11.70;46.60;;;;;;5037210;28;20529;-68
2022/11/23 08:27:19;;;;;;;50.10;10.95;;;11.60;45.90;;;;;;5029876;28;19957;-69
2022/11/23 08:29:45;;;;;;;;;;;11.60;45.80;;;;;;5038963;28;20549;-73
2022/11/23 08:32:12;;;;;;;35.88;10.45;;;11.40;49.10;;;;;;5040526;28;19959;-69
2022/11/23 08:34:38;;;;;;;43.08;10.32;;;11.40;47.20;;;;;;5039045;28;20127;-70
2022/11/23 08:37:04;;;;;;;;;;;11.40;47.30;;;;;;5039373;28;20085;-70
2022/11/23 08:39:31;;;;;;;33.78;10.68;;;;;;;;;;5042754;28;20476;-74
2022/11/23 08:41:57;;;;;;;43.17;11.02;;;11.00;65.80;;;;;;5043718;28;20540;-66
2022/11/23 08:44:23;;;;;;;;;;;11.30;47.00;;;;;;5049092;28;20093;-76
2022/11/23 08:46:49;;;;;;;27.63;8.70;;;11.40;48.00;;;;;;5048065;28;20393;-72
2022/11/23 08:49:15;;;;;;;;;;;11.30;47.90;;;;;;5035676;28;20523;-71
2022/11/23 08:51:42;;;;;;;41.47;9.00;;;11.40;53.80;;;;;;5038862;28;19962;-72
2022/11/23 08:54:08;;;;;;;;;;;11.20;47.90;;;;;;5046957;28;20160;-68
2022/11/23 08:56:34;;;;;;;24.55;6.90;;;11.30;46.70;;;;;;5044734;28;19980;-72
2022/11/23 08:59:00;;;;;;;;;;;11.20;47.00;;;;;;5046740;28;20071;-72
2022/11/23 09:01:27;;;;;;;25.75;6.78;;;11.20;46.50;;;;;;5047762;28;19952;-70
2022/11/23 09:03:53;;;;;;;;;;;11.20;44.60;;;;;;5033349;28;20106;-71
2022/11/23 09:06:25;;;;;;;17.83;5.57;;;11.30;63.50;;;;;;5023063;28;20404;-71
2022/11/23 09:08:52;;;;;;;22.83;5.38;;;11.30;47.30;;;;;;5024979;28;20066;-74
2022/11/23 09:11:18;;;;;;;19.90;4.88;;;11.20;42.80;;;;;;5026046;28;20064;-72
2022/11/23 09:13:44;;;;;;;;;;;11.30;43.50;;;;;;5021074;28;20167;-73
2022/11/23 09:16:11;;;;;;;17.27;4.68;;;11.20;56.40;;;;;;5026356;28;20005;-69
2022/11/23 09:18:37;;;;;;;;;;;11.30;47.00;;;;;;5027229;28;20048;-71
2022/11/23 09:21:04;;;;;;;11.52;4.22;;;11.10;41.20;;;;;;5026897;28;19980;-71
2022/11/23 09:23:31;;;;;;;17.15;4.20;;;11.20;42.10;;;;;;5029106;28;20098;-72
2022/11/23 09:26:02;;;;;;;14.15;3.75;;;11.20;42.10;;;;;;5020928;28;20082;-73
2022/11/23 09:28:29;;;;;;;17.90;4.22;;;11.20;41.70;;;;;;5024464;28;20138;-72
2022/11/23 09:30:56;;;;;;;15.15;3.22;;;11.30;41.90;;;;;;5019331;28;20475;-70
2022/11/23 09:33:24;;;;;;;14.27;3.35;;;11.20;41.20;;;;;;5023108;28;20081;-72
2022/11/23 09:36:01;;;;;;;12.15;2.90;;;11.20;40.80;;;;;;5019728;28;20463;-71
2022/11/23 09:38:29;;;;;;;9.95;2.97;;;11.20;40.60;;;;;;5024164;28;20487;-70
2022/11/23 09:41:08;;;;;;;7.90;3.40;;;11.20;40.60;;;;;;5018398;28;20435;-73
2022/11/23 09:43:41;;;;;;;12.15;2.95;;;11.20;40.60;;;;;;5024534;28;20075;-70
2022/11/23 09:46:41;;;;;;;10.52;3.00;;;11.20;41.60;;;;;;5024339;28;20081;-70
2022/11/23 09:49:18;;;;;;;11.38;3.03;;;11.20;41.80;;;;;;5022817;28;20085;-73
2022/11/23 09:51:45;;;;;;;11.50;3.13;;;11.10;42.40;;;;;;5027132;28;20069;-76
2022/11/23 09:54:29;;;;;;;7.93;2.55;;;11.10;41.60;;;;;;5019767;28;20071;-70
2022/11/23 09:56:57;;;;;;;7.97;2.17;;;11.20;41.30;;;;;;5022871;28;20159;-70
2022/11/23 09:59:29;;;;;;;10.05;2.28;;;11.20;40.70;;;;;;5036456;28;20558;-69
2022/11/23 10:02:00;;;;;;;5.63;2.20;;;11.20;40.60;;;;;;5019443;28;20157;-68
2022/11/23 10:04:32;;;;;;;6.13;1.85;;;11.20;39.90;;;;;;5042143;28;20147;-70
2022/11/23 10:07:18;;;;;;;3.50;1.60;;;11.20;38.80;;;;;;5046916;28;20107;-71
2022/11/23 10:10:02;;;;;;;3.40;1.30;;;11.20;39.30;;;;;;5039657;28;20079;-71
2022/11/23 10:12:47;;;;;;;5.80;1.65;;;11.20;38.60;;;;;;5040073;28;20070;-70
2022/11/23 10:15:23;;;;;;;7.82;1.60;;;11.20;39.20;;;;;;5035080;28;20094;-72
2022/11/23 10:18:08;;;;;;;4.60;1.63;;;11.20;39.30;;;;;;5041261;28;20146;-72
2022/11/23 10:21:02;;;;;;;5.93;1.65;;;11.10;40.70;;;;;;5042616;28;20092;-72
2022/11/23 10:23:56;;;;;;;7.05;2.10;;;11.10;39.20;;;;;;5044707;28;20076;-72
2022/11/23 10:26:36;;;;;;;4.28;1.77;;;11.10;41.50;;;;;;5042087;28;20097;-71
2022/11/23 10:29:22;;;;;;;4.20;1.48;;;11.10;39.70;;;;;;5044980;28;20093;-70
2022/11/23 10:31:50;;;;;;;6.03;2.05;;;11.20;38.90;;;;;;5038419;28;20153;-72
2022/11/23 10:34:39;;;;;;;3.88;1.50;;;11.00;38.30;;;;;;5040591;28;20069;-71
2022/11/23 10:37:13;;;;;;;4.85;1.90;;;11.20;56.20;;;;;;5027467;28;20100;-70
2022/11/23 10:39:40;;;;;;;7.45;2.22;;;10.90;57.90;;;;;;5037040;28;20112;-73
2022/11/23 10:42:42;;;;;;;11.38;3.10;;;11.00;38.40;;;;;;5039190;28;20069;-72
2022/11/23 10:45:21;;;;;;;6.55;3.20;;;10.80;38.50;;;;;;5038563;28;20073;-71
2022/11/23 10:47:59;;;;;;;6.82;3.30;;;11.20;59.50;;;;;;5036161;28;20586;-72
2022/11/23 10:50:31;;;;;;;12.25;3.63;;;11.10;63.50;;;;;;5037468;28;20088;-72
2022/11/23 10:53:01;;;;;;;8.75;3.47;;;10.60;50.10;;;;;;5042911;28;20078;-72
2022/11/23 10:55:30;;;;;;;6.75;3.42;;;10.30;41.60;;;;;;5042222;28;20446;-72
2022/11/23 10:57:58;;;;;;;8.13;4.50;;;11.00;58.70;;;;;;5044195;28;20492;-70
2022/11/23 11:00:26;;;;;;;10.80;3.95;;;11.20;59.30;;;;;;5038079;28;20062;-69
2022/11/23 11:02:57;;;;;;;10.40;4.10;;;10.60;55.30;;;;;;5041693;28;20142;-69
2022/11/23 11:05:26;;;;;;;12.40;4.75;;;10.60;46.80;;;;;;5043047;28;20184;-69
2022/11/23 11:07:55;;;;;;;10.95;4.75;;;10.60;41.90;;;;;;5038649;28;20077;-71
2022/11/23 11:10:38;;;;;;;11.98;5.47;;;10.50;52.30;;;;;;5041826;28;20085;-72
2022/11/23 11:13:24;;;;;;;14.50;6.40;;;10.50;41.10;;;;;;5041411;28;20203;-71
2022/11/23 11:16:03;;;;;;;16.43;7.13;;;10.60;41.30;;;;;;5044142;28;20582;-69
2022/11/23 11:18:35;;;;;;;21.42;9.38;;;10.60;42.30;;;;;;5037527;28;20077;-72
2022/11/23 11:21:16;;;;;;;19.52;10.05;;;10.30;55.90;;;;;;5026429;28;20076;-70
2022/11/23 11:23:45;;;;;;;20.13;9.73;;;10.50;62.70;;;;;;5046280;28;20077;-71
2022/11/23 11:26:45;;;;;;;23.63;11.05;;;10.20;64.20;;;;;;5042745;28;20525;-71
2022/11/23 11:29:38;;;;;;;23.35;10.02;;;10.70;62.90;;;;;;5045203;28;20073;-71
2022/11/23 11:32:19;;;;;;;31.27;11.73;;;10.40;41.40;;;;;;5042215;28;20462;-71
2022/11/23 11:35:13;;;;;;;17.55;9.13;;;10.40;42.30;;;;;;5039301;28;20500;-70
2022/11/23 11:37:49;;;;;;;22.40;9.88;;;10.30;41.90;;;;;;5034342;28;20102;-70
2022/11/23 11:40:31;;;;;;;22.83;10.15;;;10.30;41.90;;;;;;5040327;28;20089;-72
2022/11/23 11:43:24;;;;;;;22.52;9.55;;;10.30;42.60;;;;;;5036926;28;20073;-71
2022/11/23 11:45:55;;;;;;;20.13;7.93;;;10.20;42.40;;;;;;5038680;28;20078;-70
2022/11/23 11:48:38;;;;;;;19.75;9.48;;;10.20;42.50;;;;;;5039166;28;20105;-72
2022/11/23 11:51:32;;;;;;;20.23;10.07;;;10.20;44.20;;;;;;5038915;28;20519;-71
2022/11/23 11:54:03;;;;;;;21.15;9.13;;;10.10;43.60;;;;;;5031090;28;20172;-70
2022/11/23 11:56:35;;;;;;;18.95;8.90;;;10.10;43.50;;;;;;5035666;28;20682;-70
2022/11/23 11:59:23;;;;;;;17.92;8.63;;;10.10;43.70;;;;;;5038846;28;20093;-70
2022/11/23 12:02:26;;;;;;;16.70;7.65;;;10.10;43.80;;;;;;5038882;28;20120;-70
2022/11/23 12:05:10;;;;;;;16.25;6.35;;;10.00;43.30;;;;;;5038679;28;20482;-68
2022/11/23 12:07:59;;;;;;;14.60;6.60;;;10.00;43.60;;;;;;5039173;28;20574;-74
2022/11/23 12:10:48;;;;;;;17.05;6.15;;;10.00;43.30;;;;;;5040643;28;20082;-72
2022/11/23 12:13:23;;;;;;;15.48;5.22;;;10.00;42.80;;;;;;5036493;28;20096;-70
2022/11/23 12:15:54;;;;;;;22.75;5.50;;;10.00;42.90;;;;;;5038740;28;20551;-71
2022/11/23 12:18:37;;;;;;;13.65;4.82;;;10.00;43.40;;;;;;5037625;28;20066;-72
2022/11/23 12:21:05;;;;;;;14.07;4.70;;;9.80;43.10;;;;;;5041210;28;20531;-72
2022/11/23 12:23:34;;;;;;;13.40;4.88;;;9.80;43.50;;;;;;5036136;28;20567;-71
2022/11/23 12:26:24;;;;;;;14.90;4.32;;;9.80;44.30;;;;;;5037037;28;20161;-70
2022/11/23 12:29:02;;;;;;;13.88;4.05;;;9.80;43.70;;;;;;5040284;28;20111;-70
2022/11/23 12:31:38;;;;;;;12.18;4.03;;;9.80;44.10;;;;;;5038811;28;20088;-71
2022/11/23 12:34:13;;;;;;;9.52;3.72;;;9.70;44.20;;;;;;5036751;28;20084;-70
2022/11/23 12:36:56;;;;;;;15.38;3.88;;;9.70;44.70;;;;;;5037340;28;20086;-70
2022/11/23 12:39:41;;;;;;;8.55;3.50;;;9.70;44.20;;;;;;5039449;28;20104;-71
2022/11/23 12:42:30;;;;;;;13.07;3.30;;;9.70;44.20;;;;;;5040975;28;20074;-71
2022/11/23 12:45:36;;;;;;;10.77;2.63;;;9.70;43.80;;;;;;5038529;28;20070;-71
2022/11/23 12:48:08;;;;;;;8.63;2.80;;;9.70;43.10;;;;;;5040115;28;20085;-71
2022/11/23 12:50:59;;;;;;;7.38;2.50;;;9.70;43.30;;;;;;5044829;28;20062;-71
2022/11/23 12:53:31;;;;;;;10.45;2.70;;;9.70;43.20;;;;;;5029774;28;20070;-69
2022/11/23 12:56:17;;;;;;;7.78;2.75;;;9.70;43.60;;;;;;5041745;28;20090;-70
2022/11/23 12:58:45;;;;;;;12.90;2.83;;;9.60;43.70;;;;;;5038998;28;20445;-70
2022/11/23 13:01:15;;;;;;;12.55;3.75;;;9.60;43.60;;;;;;5038819;28;20066;-72
2022/11/23 13:04:18;;;;;;;11.68;3.20;;;9.60;44.70;;;;;;5041143;28;20137;-72
2022/11/23 13:07:07;;;;;;;8.95;2.97;;;9.50;45.10;;;;;;5043786;28;20077;-72